createdAt,value
2023-05-08T00:01:33.628Z,10.18
2023-05-08T00:04:21.391Z,9.02
2023-05-08T00:07:08.986Z,8.82
2023-05-08T00:09:56.529Z,9.35
2023-05-08T00:12:44.084Z,9.63
2023-05-08T00:15:31.721Z,9.07
2023-05-08T00:18:19.293Z,9.10
2023-05-08T00:21:07.023Z,8.77
2023-05-08T00:23:54.690Z,8.75
2023-05-08T00:26:44.459Z,8.90
2023-05-08T00:29:32.121Z,8.48
2023-05-08T00:32:19.889Z,9.75
2023-05-08T00:35:07.818Z,9.18
2023-05-08T00:37:55.448Z,8.95
2023-05-08T00:40:43.557Z,9.52
2023-05-08T00:43:31.048Z,8.65
2023-05-08T00:46:18.673Z,8.35
2023-05-08T00:49:06.987Z,9.35
2023-05-08T00:51:55.902Z,9.95
2023-05-08T00:54:44.437Z,8.68
2023-05-08T00:57:35.668Z,9.15
2023-05-08T01:00:24.067Z,9.07
2023-05-08T01:03:12.668Z,10.25
2023-05-08T01:06:00.345Z,10.82
2023-05-08T01:08:47.940Z,10.13
2023-05-08T01:11:52.831Z,10.80
2023-05-08T01:15:06.586Z,10.48
2023-05-08T01:18:21.863Z,10.13
2023-05-08T01:21:12.747Z,10.25
2023-05-08T01:24:23.405Z,10.80
2023-05-08T01:27:29.774Z,10.37
2023-05-08T01:30:44.004Z,11.68
2023-05-08T01:33:51.578Z,12.73
2023-05-08T01:36:57.791Z,12.65
2023-05-08T01:40:08.482Z,13.20
2023-05-08T01:43:26.918Z,14.55
2023-05-08T01:46:18.502Z,15.10
2023-05-08T01:49:36.919Z,14.60
2023-05-08T01:52:31.357Z,15.88
2023-05-08T01:55:26.696Z,15.75
2023-05-08T01:58:17.098Z,17.27
2023-05-08T02:01:05.113Z,16.65
2023-05-08T02:03:53.935Z,17.38
2023-05-08T02:06:41.699Z,15.75
2023-05-08T02:09:29.906Z,16.63
2023-05-08T02:12:18.995Z,17.80
2023-05-08T02:15:08.339Z,18.35
2023-05-08T02:17:56.292Z,17.40
2023-05-08T02:20:43.916Z,19.20
2023-05-08T02:23:33.219Z,19.83
2023-05-08T02:26:22.326Z,18.73
2023-05-08T02:29:10.700Z,22.00
2023-05-08T02:31:58.416Z,23.95
2023-05-08T02:34:58.865Z,23.08
2023-05-08T02:37:52.918Z,24.27
2023-05-08T02:40:44.650Z,24.35
2023-05-08T02:43:32.782Z,23.50
2023-05-08T02:46:49.785Z,24.52
2023-05-08T02:50:03.654Z,26.05
2023-05-08T02:52:54.669Z,28.83
2023-05-08T02:55:55.270Z,29.88
2023-05-08T02:58:42.818Z,28.60
2023-05-08T03:01:36.096Z,29.27
2023-05-08T03:04:28.387Z,29.20
2023-05-08T03:07:16.726Z,29.98
2023-05-08T03:10:08.185Z,29.52
2023-05-08T03:12:57.013Z,29.95
2023-05-08T03:15:55.575Z,29.85
2023-05-08T03:18:53.725Z,31.00
2023-05-08T03:21:43.264Z,30.90
2023-05-08T03:24:31.684Z,28.60
2023-05-08T03:27:20.485Z,27.38
2023-05-08T03:30:09.758Z,27.83
2023-05-08T03:33:00.159Z,29.52
2023-05-08T03:35:48.201Z,31.02
2023-05-08T03:38:36.299Z,29.55
2023-05-08T03:41:25.547Z,29.33
2023-05-08T03:44:13.956Z,28.77
2023-05-08T03:47:02.455Z,28.92
2023-05-08T03:49:50.422Z,30.05
2023-05-08T03:52:38.711Z,29.85
2023-05-08T03:55:27.226Z,29.63
2023-05-08T03:58:18.714Z,30.48
2023-05-08T04:01:43.312Z,29.73
2023-05-08T04:04:37.432Z,28.50
2023-05-08T04:07:29.192Z,25.83
2023-05-08T04:10:23.866Z,26.58
2023-05-08T04:13:19.017Z,26.52
2023-05-08T04:16:16.332Z,26.90
2023-05-08T04:19:11.110Z,28.08
2023-05-08T04:22:06.652Z,28.65
2023-05-08T04:24:56.297Z,28.30
2023-05-08T04:27:44.561Z,28.30
2023-05-08T04:30:33.618Z,29.75
2023-05-08T04:33:21.706Z,31.27
2023-05-08T04:36:13.863Z,29.38
2023-05-08T04:39:03.971Z,28.63
2023-05-08T04:41:52.743Z,30.75
2023-05-08T04:44:41.158Z,27.58
2023-05-08T04:47:28.798Z,26.27
2023-05-08T04:50:16.426Z,26.77
2023-05-08T04:53:04.110Z,26.10
2023-05-08T04:55:52.766Z,24.20
2023-05-08T04:58:40.863Z,25.80
2023-05-08T05:01:28.587Z,23.95
2023-05-08T05:04:16.224Z,24.05
2023-05-08T05:07:04.229Z,23.55
2023-05-08T05:09:52.185Z,22.92
2023-05-08T05:12:39.831Z,23.30
2023-05-08T05:15:27.492Z,22.25
2023-05-08T05:18:15.230Z,22.50
2023-05-08T05:21:03.461Z,23.48
2023-05-08T05:23:51.136Z,22.98
2023-05-08T05:26:38.819Z,21.42
2023-05-08T05:29:26.395Z,23.20
2023-05-08T05:32:13.987Z,24.02
2023-05-08T05:35:01.758Z,22.45
2023-05-08T05:37:49.356Z,22.23
2023-05-08T05:40:37.289Z,21.48
2023-05-08T05:43:24.892Z,21.90
2023-05-08T05:46:12.467Z,21.13
2023-05-08T05:49:01.268Z,20.77
2023-05-08T05:51:49.540Z,19.08
2023-05-08T05:54:38.094Z,18.45
2023-05-08T05:57:25.634Z,18.27
2023-05-08T06:00:13.582Z,18.13
2023-05-08T06:03:10.800Z,17.75
2023-05-08T06:05:58.545Z,18.47
2023-05-08T06:08:48.550Z,18.48
2023-05-08T06:11:36.389Z,18.50
2023-05-08T06:14:24.058Z,15.88
2023-05-08T06:17:11.627Z,15.25
2023-05-08T06:19:59.121Z,14.18
2023-05-08T06:22:46.644Z,13.38
2023-05-08T06:25:34.440Z,14.73
2023-05-08T06:28:24.006Z,15.07
2023-05-08T06:31:11.621Z,14.05
2023-05-08T06:33:59.102Z,14.23
2023-05-08T06:36:46.695Z,14.93
2023-05-08T06:39:34.244Z,15.13
2023-05-08T06:42:21.867Z,15.50
2023-05-08T06:45:10.031Z,16.92
2023-05-08T06:47:57.895Z,16.92
2023-05-08T06:50:46.639Z,16.27
2023-05-08T06:53:34.145Z,16.48
2023-05-08T06:56:22.745Z,16.45
2023-05-08T06:59:10.311Z,16.13
2023-05-08T07:01:58.574Z,15.60
2023-05-08T07:04:46.543Z,15.38
2023-05-08T07:07:34.218Z,14.75
2023-05-08T07:10:22.989Z,13.38
2023-05-08T07:13:10.756Z,15.32
2023-05-08T07:15:58.445Z,14.57
2023-05-08T07:18:46.074Z,15.60
2023-05-08T07:21:33.603Z,15.45
2023-05-08T07:24:21.080Z,14.77
2023-05-08T07:27:08.658Z,14.95
2023-05-08T07:29:58.489Z,13.98
2023-05-08T07:32:46.284Z,13.88
2023-05-08T07:35:34.310Z,13.60
2023-05-08T07:38:21.828Z,14.05
2023-05-08T07:41:09.650Z,12.27
2023-05-08T07:43:57.323Z,13.13
2023-05-08T07:46:45.284Z,12.15
2023-05-08T07:49:32.905Z,13.05
2023-05-08T07:52:20.506Z,13.15
2023-05-08T07:55:08.547Z,11.48
2023-05-08T07:57:56.092Z,11.38
2023-05-08T08:00:44.710Z,11.50
2023-05-08T08:03:32.339Z,11.35
2023-05-08T08:06:19.828Z,9.75
2023-05-08T08:09:07.784Z,11.13
2023-05-08T08:11:55.336Z,10.48
2023-05-08T08:14:42.819Z,11.73
2023-05-08T08:17:30.462Z,9.95
2023-05-08T08:20:18.332Z,10.55
2023-05-08T08:23:06.164Z,10.80
2023-05-08T08:25:54.214Z,11.13
2023-05-08T08:28:41.918Z,9.98
2023-05-08T08:31:29.428Z,9.55
2023-05-08T08:34:17.084Z,9.85
2023-05-08T08:37:07.788Z,9.73
2023-05-08T08:39:55.357Z,9.65
2023-05-08T08:42:43.291Z,9.43
2023-05-08T08:45:31.265Z,9.93
2023-05-08T08:48:19.545Z,8.85
2023-05-08T08:51:31.385Z,9.43
2023-05-08T08:54:24.569Z,10.13
2023-05-08T08:57:12.940Z,9.30
2023-05-08T09:00:06.511Z,9.23
2023-05-08T09:02:54.595Z,8.50
2023-05-08T09:05:43.963Z,8.40
2023-05-08T09:08:32.469Z,7.67
2023-05-08T09:11:20.072Z,7.20
2023-05-08T09:14:08.652Z,8.35
2023-05-08T09:16:56.194Z,8.77
2023-05-08T09:19:43.924Z,7.72
2023-05-08T09:22:31.883Z,9.20
2023-05-08T09:25:19.600Z,8.68
2023-05-08T09:28:33.731Z,9.05
2023-05-08T09:31:34.563Z,7.55
2023-05-08T09:34:28.279Z,7.90
2023-05-08T09:37:16.052Z,7.32
2023-05-08T09:40:14.415Z,6.50
2023-05-08T09:43:16.230Z,6.57
2023-05-08T09:46:27.129Z,6.15
2023-05-08T09:49:18.092Z,7.75
2023-05-08T09:52:05.822Z,7.65
2023-05-08T09:55:11.572Z,7.30
2023-05-08T09:58:00.007Z,6.82
2023-05-08T10:00:47.895Z,6.93
2023-05-08T10:03:50.583Z,6.78
2023-05-08T10:06:38.760Z,8.07
2023-05-08T10:09:28.924Z,7.88
2023-05-08T10:12:23.689Z,8.00
2023-05-08T10:15:12.044Z,7.57
2023-05-08T10:18:09.009Z,8.38
2023-05-08T10:20:58.521Z,10.65
2023-05-08T10:23:49.206Z,6.95
2023-05-08T10:26:38.551Z,7.40
2023-05-08T10:29:33.624Z,6.60
2023-05-08T10:32:21.919Z,6.63
2023-05-08T10:35:11.000Z,6.60
2023-05-08T10:37:58.672Z,7.03
2023-05-08T10:40:46.607Z,7.32
2023-05-08T10:43:34.253Z,6.50
2023-05-08T10:46:28.901Z,6.85
2023-05-08T10:49:20.284Z,6.95
2023-05-08T10:52:16.555Z,6.28
2023-05-08T10:55:19.857Z,6.65
2023-05-08T10:58:29.297Z,6.80
2023-05-08T11:01:17.349Z,6.57
2023-05-08T11:04:19.952Z,6.97
2023-05-08T11:07:07.939Z,7.32
2023-05-08T11:10:07.319Z,6.82
2023-05-08T11:12:55.062Z,5.60
2023-05-08T11:15:50.083Z,5.53
2023-05-08T11:18:49.168Z,5.75
2023-05-08T11:21:37.390Z,5.60
2023-05-08T11:24:35.878Z,6.28
2023-05-08T11:27:39.034Z,5.85
2023-05-08T11:30:29.411Z,5.47
2023-05-08T11:33:17.698Z,5.38
2023-05-08T11:36:14.952Z,5.30
2023-05-08T11:39:07.820Z,5.78
2023-05-08T11:41:55.451Z,5.30
2023-05-08T11:44:43.186Z,5.35
2023-05-08T11:47:44.429Z,5.55
2023-05-08T11:50:32.138Z,5.75
2023-05-08T11:53:19.661Z,5.13
2023-05-08T11:56:08.154Z,5.18
2023-05-08T11:59:03.759Z,5.30
2023-05-08T12:04:46.928Z,4.95
2023-05-08T12:07:47.279Z,4.80
2023-05-08T12:13:30.344Z,4.50
2023-05-08T12:16:18.109Z,4.70
2023-05-08T12:19:10.649Z,4.55
2023-05-08T12:21:58.856Z,5.15
2023-05-08T12:24:58.929Z,5.10
2023-05-08T12:27:46.617Z,4.88
2023-05-08T12:30:34.379Z,4.40
2023-05-08T12:33:21.986Z,4.22
2023-05-08T12:36:09.634Z,4.40
2023-05-08T12:39:12.950Z,4.38
2023-05-08T12:42:01.290Z,4.60
2023-05-08T12:44:52.786Z,4.50
2023-05-08T12:47:40.468Z,4.55
2023-05-08T12:50:30.410Z,3.72
2023-05-08T12:53:20.041Z,4.28
2023-05-08T12:56:07.772Z,4.82
2023-05-08T12:58:59.260Z,3.72
2023-05-08T13:01:51.492Z,4.20
2023-05-08T13:04:39.254Z,3.65
2023-05-08T13:07:32.446Z,4.00
2023-05-08T13:10:22.532Z,4.18
2023-05-08T13:13:11.770Z,3.50
2023-05-08T13:16:03.228Z,3.70
2023-05-08T13:18:50.866Z,3.40
2023-05-08T13:21:38.898Z,3.28
2023-05-08T13:24:27.080Z,3.72
2023-05-08T13:27:14.731Z,2.97
2023-05-08T13:30:02.272Z,3.10
2023-05-08T13:32:50.374Z,3.30
2023-05-08T13:35:38.592Z,3.03
2023-05-08T13:38:26.148Z,2.80
2023-05-08T13:41:13.630Z,3.20
2023-05-08T13:44:01.177Z,2.97
2023-05-08T13:46:48.812Z,3.17
2023-05-08T13:49:36.300Z,3.00
2023-05-08T13:52:24.168Z,3.50
2023-05-08T13:55:13.117Z,2.90
2023-05-08T13:58:01.670Z,3.55
2023-05-08T14:00:49.976Z,2.92
2023-05-08T14:03:37.685Z,2.60
2023-05-08T14:06:25.498Z,2.92
2023-05-08T14:09:13.129Z,2.33
2023-05-08T14:12:00.801Z,2.60
2023-05-08T14:14:48.365Z,2.50
2023-05-08T14:17:36.189Z,2.83
2023-05-08T14:20:24.044Z,2.05
2023-05-08T14:23:11.555Z,2.70
2023-05-08T14:25:59.281Z,2.47
2023-05-08T14:28:46.954Z,2.50
2023-05-08T14:31:34.697Z,2.47
2023-05-08T14:34:22.438Z,2.10
2023-05-08T14:37:10.191Z,1.67
2023-05-08T14:39:59.375Z,1.83
2023-05-08T14:42:47.120Z,2.17
2023-05-08T14:45:34.686Z,1.90
2023-05-08T14:48:22.164Z,1.98
2023-05-08T14:51:12.069Z,1.80
2023-05-08T14:53:59.892Z,2.40
2023-05-08T14:56:47.923Z,1.80
2023-05-08T14:59:35.836Z,1.75
2023-05-08T15:02:24.089Z,2.05
2023-05-08T15:05:19.268Z,1.98
2023-05-08T15:08:07.485Z,2.10
2023-05-08T15:10:55.055Z,2.08
2023-05-08T15:13:42.690Z,1.60
2023-05-08T15:16:30.773Z,1.65
2023-05-08T15:19:18.299Z,1.77
2023-05-08T15:22:05.916Z,1.85
2023-05-08T15:24:54.122Z,1.95
2023-05-08T15:27:41.935Z,2.03
2023-05-08T15:30:29.663Z,2.10
2023-05-08T15:33:17.241Z,1.92
2023-05-08T15:36:05.042Z,1.95
2023-05-08T15:38:54.071Z,1.95
2023-05-08T15:41:41.851Z,1.83
2023-05-08T15:44:42.188Z,2.40
2023-05-08T15:47:37.060Z,2.38
2023-05-08T15:50:24.698Z,1.80
2023-05-08T15:53:12.400Z,2.05
2023-05-08T15:55:59.862Z,1.90
2023-05-08T15:58:47.471Z,2.28
2023-05-08T16:01:34.966Z,6.80
2023-05-08T16:04:22.424Z,3.95
2023-05-08T16:07:09.961Z,2.10
2023-05-08T16:09:57.531Z,2.00
2023-05-08T16:12:45.108Z,2.20
2023-05-08T16:15:32.796Z,1.80
2023-05-08T16:18:20.398Z,2.00
2023-05-08T16:21:11.936Z,1.90
2023-05-08T16:23:59.609Z,2.05
2023-05-08T16:26:47.151Z,2.20
2023-05-08T16:29:34.703Z,1.85
2023-05-08T16:32:22.351Z,2.40
2023-05-08T16:35:11.556Z,2.30
2023-05-08T16:37:59.514Z,2.30
2023-05-08T16:40:47.261Z,2.20
2023-05-08T16:43:34.856Z,2.30
2023-05-08T16:46:29.935Z,2.35
2023-05-08T16:49:18.195Z,2.45
2023-05-08T16:52:05.782Z,2.67
2023-05-08T16:54:53.536Z,4.35
2023-05-08T16:57:41.008Z,3.50
2023-05-08T17:00:28.524Z,2.88
2023-05-08T17:03:16.305Z,2.60
2023-05-08T17:06:07.892Z,2.70
2023-05-08T17:08:55.396Z,2.90
2023-05-08T17:11:42.872Z,3.38
2023-05-08T17:14:30.645Z,2.47
2023-05-08T17:17:18.235Z,3.22
2023-05-08T17:20:06.490Z,3.67
2023-05-08T17:22:54.328Z,2.42
2023-05-08T17:25:41.864Z,2.28
2023-05-08T17:28:29.469Z,2.50
2023-05-08T17:31:17.192Z,3.03
2023-05-08T17:34:04.744Z,2.78
2023-05-08T17:39:42.281Z,2.20
2023-05-08T17:42:29.950Z,2.30
2023-05-08T17:45:17.604Z,2.45
2023-05-08T17:48:05.662Z,2.67
2023-05-08T17:50:53.539Z,3.08
2023-05-08T17:53:41.253Z,2.40
2023-05-08T17:56:31.090Z,2.45
2023-05-08T17:59:19.924Z,2.35
2023-05-08T18:02:07.957Z,2.40
2023-05-08T18:04:56.145Z,2.45
2023-05-08T18:07:43.934Z,2.10
2023-05-08T18:10:32.441Z,2.40
2023-05-08T18:13:20.363Z,2.30
2023-05-08T18:16:08.480Z,2.17
2023-05-08T18:18:56.627Z,2.30
2023-05-08T18:21:44.757Z,2.70
2023-05-08T18:24:32.680Z,2.58
2023-05-08T18:27:37.457Z,3.10
2023-05-08T18:30:25.202Z,3.45
2023-05-08T18:33:12.673Z,2.70
2023-05-08T18:36:00.291Z,2.67
2023-05-08T18:38:47.806Z,2.50
2023-05-08T18:41:36.510Z,2.80
2023-05-08T18:44:24.008Z,2.70
2023-05-08T18:47:11.660Z,2.40
2023-05-08T18:49:59.956Z,2.47
2023-05-08T18:52:49.677Z,2.58
2023-05-08T18:55:37.330Z,2.70
2023-05-08T18:58:24.791Z,3.08
2023-05-08T19:01:12.703Z,2.58
2023-05-08T19:04:00.608Z,2.70
2023-05-08T19:08:53.660Z,2.80
2023-05-08T19:11:21.845Z,2.90
2023-05-08T19:13:50.132Z,3.03
2023-05-08T19:16:17.634Z,3.22
2023-05-08T19:18:44.875Z,3.05
2023-05-08T19:21:12.101Z,2.60
2023-05-08T19:23:39.715Z,3.00
2023-05-08T19:26:07.203Z,3.08
2023-05-08T19:28:34.838Z,3.53
2023-05-08T19:31:02.158Z,3.17
2023-05-08T19:33:29.418Z,3.63
2023-05-08T19:35:56.693Z,3.47
2023-05-08T19:38:24.009Z,3.85
2023-05-08T19:40:56.678Z,3.53
2023-05-08T19:43:27.913Z,3.97
2023-05-08T19:45:55.663Z,3.22
2023-05-08T19:48:23.210Z,3.28
2023-05-08T19:50:52.743Z,3.15
2023-05-08T19:53:22.787Z,3.05
2023-05-08T19:55:50.574Z,2.75
2023-05-08T19:58:18.053Z,3.17
2023-05-08T20:00:51.042Z,2.70
2023-05-08T20:03:18.932Z,2.80
2023-05-08T20:05:46.450Z,2.80
2023-05-08T20:08:13.745Z,3.08
2023-05-08T20:10:41.155Z,2.60
2023-05-08T20:13:08.684Z,3.15
2023-05-08T20:15:36.321Z,3.08
2023-05-08T20:18:03.658Z,3.40
2023-05-08T20:20:32.076Z,3.10
2023-05-08T20:22:59.329Z,2.90
2023-05-08T20:25:27.050Z,3.00
2023-05-08T20:27:54.801Z,3.17
2023-05-08T20:30:23.669Z,3.03
2023-05-08T20:32:51.449Z,3.45
2023-05-08T20:35:18.827Z,3.83
2023-05-08T20:37:47.453Z,3.70
2023-05-08T20:40:15.417Z,2.63
2023-05-08T20:42:42.983Z,2.55
2023-05-08T20:45:11.089Z,2.42
2023-05-08T20:47:38.443Z,2.83
2023-05-08T20:50:06.612Z,2.63
2023-05-08T20:52:35.310Z,2.55
2023-05-08T20:55:04.270Z,2.80
2023-05-08T20:57:31.488Z,3.05
2023-05-08T20:59:58.755Z,3.05
2023-05-08T21:02:25.972Z,2.65
2023-05-08T21:04:53.378Z,2.65
2023-05-08T21:07:20.932Z,3.50
2023-05-08T21:09:48.191Z,3.50
2023-05-08T21:12:15.428Z,3.50
2023-05-08T21:14:43.959Z,4.70
2023-05-08T21:17:11.584Z,2.90
2023-05-08T21:19:38.864Z,3.28
2023-05-08T21:22:07.523Z,3.10
2023-05-08T21:24:35.357Z,3.67
2023-05-08T21:27:02.797Z,2.72
2023-05-08T21:29:29.999Z,3.05
2023-05-08T21:31:57.376Z,3.00
2023-05-08T21:34:24.721Z,3.17
2023-05-08T21:36:52.064Z,3.17
2023-05-08T21:39:19.465Z,3.00
2023-05-08T21:41:46.836Z,3.60
2023-05-08T21:44:15.588Z,3.10
2023-05-08T21:46:43.105Z,3.20
2023-05-08T21:49:10.878Z,3.78
2023-05-08T21:51:38.198Z,3.78
2023-05-08T21:54:05.462Z,3.65
2023-05-08T21:56:32.748Z,3.08
2023-05-08T21:59:00.060Z,2.75
2023-05-08T22:01:27.463Z,3.05
2023-05-08T22:03:54.907Z,2.95
2023-05-08T22:06:22.211Z,3.17
2023-05-08T22:08:49.435Z,3.10
2023-05-08T22:11:16.686Z,3.00
2023-05-08T22:13:43.926Z,3.10
2023-05-08T22:16:11.226Z,3.13
2023-05-08T22:18:38.591Z,3.33
2023-05-08T22:21:05.883Z,2.72
2023-05-08T22:23:34.628Z,2.92
2023-05-08T22:26:02.981Z,3.03
2023-05-08T22:28:30.280Z,3.08
2023-05-08T22:30:57.579Z,3.38
2023-05-08T22:33:24.953Z,3.30
2023-05-08T22:35:52.170Z,3.17
2023-05-08T22:38:19.336Z,2.88
2023-05-08T22:40:47.696Z,3.08
2023-05-08T22:43:15.027Z,3.03
2023-05-08T22:45:42.344Z,3.10
2023-05-08T22:48:10.547Z,3.38
2023-05-08T22:50:37.906Z,3.40
2023-05-08T22:53:08.126Z,3.30
2023-05-08T22:55:35.726Z,3.38
2023-05-08T22:58:03.544Z,3.50
2023-05-08T23:00:30.785Z,2.53
2023-05-08T23:02:58.179Z,2.75
2023-05-08T23:05:25.371Z,2.58
2023-05-08T23:07:52.587Z,2.40
2023-05-08T23:10:19.813Z,2.60
2023-05-08T23:12:47.105Z,3.00
2023-05-08T23:15:14.542Z,2.80
2023-05-08T23:17:41.903Z,2.72
2023-05-08T23:20:09.458Z,2.30
2023-05-08T23:22:36.700Z,2.22
2023-05-08T23:25:04.177Z,2.65
2023-05-08T23:27:31.409Z,2.42
2023-05-08T23:29:58.647Z,2.50
2023-05-08T23:32:26.115Z,2.70
2023-05-08T23:34:53.358Z,2.38
2023-05-08T23:37:20.593Z,2.38
2023-05-08T23:39:47.823Z,2.45
2023-05-08T23:42:15.017Z,2.60
2023-05-08T23:44:42.271Z,2.40
2023-05-08T23:47:09.630Z,2.92
2023-05-08T23:49:36.903Z,3.33
2023-05-08T23:52:04.491Z,2.75
2023-05-08T23:54:31.877Z,2.70
2023-05-08T23:56:59.180Z,2.80
2023-05-08T23:59:26.350Z,2.47
